createdAt,value
2019-02-25T00:02:05.866Z,35.97
2019-02-25T00:04:39.548Z,38.90
2019-02-25T00:07:13.181Z,39.40
2019-02-25T00:09:46.841Z,46.03
2019-02-25T00:12:20.513Z,41.60
2019-02-25T00:14:54.173Z,37.33
2019-02-25T00:17:27.965Z,46.60
2019-02-25T00:20:01.663Z,41.97
2019-02-25T00:22:35.278Z,40.47
2019-02-25T00:25:11.481Z,35.20
2019-02-25T00:27:45.121Z,44.77
2019-02-25T00:30:18.832Z,40.80
2019-02-25T00:32:58.797Z,39.23
2019-02-25T00:35:32.487Z,43.87
2019-02-25T00:38:06.144Z,43.00
2019-02-25T00:40:42.805Z,35.90
2019-02-25T00:43:16.537Z,40.60
2019-02-25T00:45:50.274Z,45.50
2019-02-25T00:48:23.929Z,45.87
2019-02-25T00:50:57.593Z,44.37
2019-02-25T00:53:31.237Z,40.70
2019-02-25T00:56:04.979Z,43.90
2019-02-25T00:58:38.605Z,38.93
2019-02-25T01:01:12.312Z,39.90
2019-02-25T01:03:45.944Z,45.97
2019-02-25T01:06:19.603Z,52.40
2019-02-25T01:08:53.764Z,47.63
2019-02-25T01:11:27.428Z,44.30
2019-02-25T01:14:01.111Z,44.23
2019-02-25T01:16:35.080Z,41.80
2019-02-25T01:19:17.730Z,45.77
2019-02-25T01:21:51.422Z,38.43
2019-02-25T01:24:28.029Z,40.97
2019-02-25T01:27:01.735Z,41.27
2019-02-25T01:29:35.321Z,40.30
2019-02-25T01:32:22.052Z,40.47
2019-02-25T01:34:55.724Z,40.43
2019-02-25T01:37:32.730Z,42.23
2019-02-25T01:40:09.167Z,38.03
2019-02-25T01:42:42.876Z,38.07
2019-02-25T01:45:22.587Z,36.63
2019-02-25T01:47:56.590Z,39.97
2019-02-25T01:50:30.187Z,37.20
2019-02-25T01:53:19.053Z,38.90
2019-02-25T01:55:52.651Z,40.33
2019-02-25T01:58:35.429Z,36.67
2019-02-25T02:01:09.043Z,40.23
2019-02-25T02:03:42.671Z,34.87
2019-02-25T02:06:23.990Z,37.63
2019-02-25T02:08:57.728Z,36.10
2019-02-25T02:11:34.884Z,36.23
2019-02-25T02:14:08.843Z,39.80
2019-02-25T02:16:42.530Z,37.00
2019-02-25T02:19:16.170Z,37.77
2019-02-25T02:21:49.754Z,35.63
2019-02-25T02:24:23.382Z,34.30
2019-02-25T02:27:09.107Z,35.50
2019-02-25T02:29:42.719Z,37.73
2019-02-25T02:32:19.384Z,47.83
2019-02-25T02:34:53.016Z,54.33
2019-02-25T02:37:26.680Z,55.83
2019-02-25T02:40:00.479Z,46.27
2019-02-25T02:43:00.387Z,50.07
2019-02-25T02:45:46.793Z,49.97
2019-02-25T02:48:23.464Z,55.93
2019-02-25T02:50:57.094Z,51.87
2019-02-25T02:53:30.954Z,49.27
2019-02-25T02:56:04.702Z,51.63
2019-02-25T02:58:38.367Z,51.07
2019-02-25T03:01:12.082Z,50.90
2019-02-25T03:03:45.773Z,57.83
2019-02-25T03:06:19.366Z,50.90
2019-02-25T03:08:55.987Z,55.60
2019-02-25T03:11:29.636Z,51.40
2019-02-25T03:14:18.341Z,51.60
2019-02-25T03:16:51.932Z,55.53
2019-02-25T03:19:25.573Z,53.70
2019-02-25T03:21:59.163Z,50.43
2019-02-25T03:24:32.795Z,58.27
2019-02-25T03:27:21.478Z,58.00
2019-02-25T03:29:55.091Z,56.33
2019-02-25T03:32:28.733Z,55.80
2019-02-25T03:35:14.500Z,54.23
2019-02-25T03:37:48.300Z,54.90
2019-02-25T03:40:23.000Z,62.07
2019-02-25T03:42:56.637Z,59.90
2019-02-25T03:45:30.229Z,62.77
2019-02-25T03:48:03.922Z,61.43
2019-02-25T03:50:37.522Z,59.57
2019-02-25T03:53:11.119Z,59.30
2019-02-25T03:55:44.851Z,64.23
2019-02-25T03:58:18.475Z,63.57
2019-02-25T04:00:52.408Z,63.83
2019-02-25T04:03:26.174Z,68.47
2019-02-25T04:05:59.824Z,72.70
2019-02-25T04:08:33.592Z,62.33
2019-02-25T04:11:16.660Z,61.30
2019-02-25T04:13:50.273Z,53.60
2019-02-25T04:16:23.944Z,53.33
2019-02-25T04:18:57.707Z,47.73
2019-02-25T04:21:31.403Z,51.43
2019-02-25T04:24:17.135Z,50.47
2019-02-25T04:26:50.748Z,55.13
2019-02-25T04:29:24.694Z,56.30
2019-02-25T04:31:58.332Z,54.67
2019-02-25T04:34:31.981Z,55.57
2019-02-25T04:37:06.027Z,60.93
2019-02-25T04:39:51.903Z,50.40
2019-02-25T04:42:25.914Z,54.10
2019-02-25T04:44:59.600Z,53.63
2019-02-25T04:47:33.294Z,50.97
2019-02-25T04:50:08.962Z,57.03
2019-02-25T04:52:42.649Z,61.77
2019-02-25T04:55:16.624Z,60.97
2019-02-25T04:57:53.271Z,58.93
2019-02-25T05:00:27.390Z,62.57
2019-02-25T05:03:01.072Z,69.00
2019-02-25T05:05:34.725Z,76.20
2019-02-25T05:08:08.348Z,78.40
2019-02-25T05:10:41.933Z,83.00
2019-02-25T05:13:18.642Z,91.57
2019-02-25T05:15:52.260Z,94.60
2019-02-25T05:18:25.910Z,95.80
2019-02-25T05:21:01.439Z,99.10
2019-02-25T05:23:35.100Z,96.20
2019-02-25T05:26:08.731Z,87.27
2019-02-25T05:28:42.357Z,83.33
2019-02-25T05:31:16.104Z,89.77
2019-02-25T05:33:49.780Z,94.93
2019-02-25T05:36:23.481Z,89.77
2019-02-25T05:38:58.667Z,99.13
2019-02-25T05:41:32.503Z,102.80
2019-02-25T05:44:08.494Z,101.43
2019-02-25T05:46:41.446Z,108.07
2019-02-25T05:49:18.148Z,95.20
2019-02-25T05:51:51.762Z,96.57
2019-02-25T05:54:30.069Z,108.10
2019-02-25T05:57:03.770Z,111.90
2019-02-25T05:59:43.771Z,110.07
2019-02-25T06:02:17.390Z,97.43
2019-02-25T06:04:51.499Z,108.87
2019-02-25T06:07:31.130Z,112.70
2019-02-25T06:10:06.585Z,92.67
2019-02-25T06:12:43.662Z,94.90
2019-02-25T06:15:18.928Z,99.03
2019-02-25T06:17:52.802Z,111.33
2019-02-25T06:20:29.477Z,101.07
2019-02-25T06:23:03.239Z,113.20
2019-02-25T06:25:37.197Z,105.90
2019-02-25T06:28:13.990Z,102.43
2019-02-25T06:30:47.530Z,109.73
2019-02-25T06:33:21.344Z,114.80
2019-02-25T06:35:54.952Z,111.80
2019-02-25T06:38:28.653Z,113.47
2019-02-25T06:41:02.407Z,108.20
2019-02-25T06:43:39.077Z,103.20
2019-02-25T06:46:31.291Z,100.00
2019-02-25T06:49:08.866Z,102.73
2019-02-25T06:51:45.880Z,98.70
2019-02-25T06:54:19.570Z,94.03
2019-02-25T06:56:56.517Z,94.00
2019-02-25T06:59:30.265Z,82.33
2019-02-25T07:02:03.934Z,83.30
2019-02-25T07:04:48.402Z,75.80
2019-02-25T07:07:23.625Z,75.40
2019-02-25T07:10:01.873Z,79.93
2019-02-25T07:12:37.114Z,70.33
2019-02-25T07:15:12.359Z,67.07
2019-02-25T07:17:53.563Z,68.87
2019-02-25T07:20:28.829Z,69.37
2019-02-25T07:23:04.065Z,61.53
2019-02-25T07:28:28.613Z,64.40
2019-02-25T07:31:19.323Z,59.33
2019-02-25T07:33:54.688Z,55.10
2019-02-25T07:36:29.966Z,56.07
2019-02-25T07:39:16.465Z,57.93
2019-02-25T07:41:55.064Z,57.93
2019-02-25T07:44:30.877Z,59.58
2019-02-25T07:47:06.855Z,56.13
2019-02-25T07:49:48.988Z,52.15
2019-02-25T07:52:33.588Z,53.05
2019-02-25T07:55:19.817Z,54.05
2019-02-25T07:57:58.801Z,54.93
2019-02-25T08:00:53.673Z,55.58
2019-02-25T08:03:29.584Z,52.50
2019-02-25T08:06:22.082Z,55.85
2019-02-25T08:08:57.928Z,54.00
2019-02-25T08:11:53.071Z,50.45
2019-02-25T08:17:39.134Z,51.00
2019-02-25T08:20:27.183Z,51.60
2019-02-25T08:23:03.032Z,46.15
2019-02-25T08:28:53.034Z,46.28
2019-02-25T08:31:52.151Z,46.50
2019-02-25T08:34:40.103Z,46.05
2019-02-25T08:37:34.108Z,43.73
2019-02-25T08:40:40.547Z,50.33
2019-02-25T08:43:38.204Z,46.85
2019-02-25T08:46:14.155Z,47.55
2019-02-25T08:48:50.475Z,47.58
2019-02-25T08:51:24.643Z,44.83
2019-02-25T08:53:58.917Z,45.23
2019-02-25T08:56:41.264Z,44.48
2019-02-25T08:59:15.918Z,47.00
2019-02-25T09:01:50.261Z,44.40
2019-02-25T09:04:24.635Z,47.43
2019-02-25T09:07:02.342Z,46.35
2019-02-25T09:09:36.892Z,44.27
2019-02-25T09:12:17.403Z,45.67
2019-02-25T09:14:51.985Z,44.45
2019-02-25T09:17:26.187Z,46.48
2019-02-25T09:20:00.687Z,40.60
2019-02-25T09:22:35.207Z,44.75
2019-02-25T09:25:18.652Z,38.08
2019-02-25T09:27:52.855Z,41.33
2019-02-25T09:30:27.494Z,37.73
2019-02-25T09:33:01.741Z,41.02
2019-02-25T09:35:35.950Z,37.48
2019-02-25T09:38:19.620Z,38.58
2019-02-25T09:40:54.312Z,38.80
2019-02-25T09:43:31.615Z,34.92
2019-02-25T09:46:05.990Z,33.40
2019-02-25T09:48:40.174Z,32.40
2019-02-25T09:51:22.086Z,32.33
2019-02-25T09:53:56.327Z,33.53
2019-02-25T09:56:30.831Z,33.08
2019-02-25T09:59:05.127Z,30.97
2019-02-25T10:01:39.319Z,32.78
2019-02-25T10:04:13.523Z,32.23
2019-02-25T10:07:02.278Z,32.80
2019-02-25T10:09:32.630Z,30.45
2019-02-25T10:12:06.818Z,29.37
2019-02-25T10:14:45.899Z,27.70
2019-02-25T10:17:23.833Z,25.40
2019-02-25T10:19:55.663Z,26.10
2019-02-25T10:22:29.603Z,23.20
2019-02-25T10:25:04.762Z,28.10
2019-02-25T10:27:46.042Z,24.10
2019-02-25T10:30:21.029Z,23.10
2019-02-25T10:32:54.976Z,25.67
2019-02-25T10:35:30.393Z,36.98
2019-02-25T10:38:05.117Z,34.78
2019-02-25T10:40:39.163Z,27.13
2019-02-25T10:43:13.792Z,30.27
2019-02-25T10:45:52.779Z,27.37
2019-02-25T10:48:28.111Z,22.90
2019-02-25T10:51:02.750Z,24.13
2019-02-25T10:53:37.681Z,22.63
2019-02-25T10:56:16.746Z,24.93
2019-02-25T10:58:50.515Z,24.77
2019-02-25T11:01:24.707Z,24.40
2019-02-25T11:03:58.797Z,22.77
2019-02-25T11:06:35.551Z,19.20
2019-02-25T11:09:15.775Z,21.73
2019-02-25T11:11:50.676Z,21.33
2019-02-25T11:14:25.579Z,21.82
2019-02-25T11:16:59.799Z,18.42
2019-02-25T11:19:46.005Z,16.82
2019-02-25T11:22:20.183Z,19.90
2019-02-25T11:24:55.606Z,17.40
2019-02-25T11:27:37.786Z,17.33
2019-02-25T11:30:16.584Z,22.37
2019-02-25T11:32:51.714Z,18.60
2019-02-25T11:35:26.221Z,19.70
2019-02-25T11:38:01.769Z,23.37
2019-02-25T11:40:37.855Z,22.87
2019-02-25T11:43:13.239Z,10.97
2019-02-25T11:45:51.180Z,12.67
2019-02-25T11:48:25.118Z,11.43
2019-02-25T11:51:03.473Z,10.70
2019-02-25T11:53:37.683Z,14.93
2019-02-25T11:56:11.882Z,13.98
2019-02-25T11:58:53.679Z,13.32
2019-02-25T12:01:27.942Z,12.05
2019-02-25T12:04:05.830Z,12.70
2019-02-25T12:06:40.420Z,15.08
2019-02-25T12:09:18.024Z,14.73
2019-02-25T12:11:52.302Z,17.50
2019-02-25T12:14:31.406Z,20.27
2019-02-25T12:17:05.767Z,20.82
2019-02-25T12:19:40.023Z,19.00
2019-02-25T12:22:18.711Z,20.80
2019-02-25T12:24:53.001Z,19.82
2019-02-25T12:27:32.989Z,20.95
2019-02-25T12:30:10.255Z,19.90
2019-02-25T12:32:45.948Z,17.32
2019-02-25T12:35:20.542Z,19.37
2019-02-25T12:37:54.750Z,20.05
2019-02-25T12:40:33.481Z,22.82
2019-02-25T12:43:07.718Z,18.50
2019-02-25T12:45:42.021Z,17.62
2019-02-25T12:48:22.633Z,19.23
2019-02-25T12:50:56.421Z,19.95
2019-02-25T12:53:34.551Z,17.98
2019-02-25T12:56:08.837Z,23.40
2019-02-25T12:58:43.129Z,22.73
2019-02-25T13:01:21.329Z,22.90
2019-02-25T13:03:55.659Z,25.75
2019-02-25T13:06:34.718Z,27.52
2019-02-25T13:09:11.903Z,25.08
2019-02-25T13:11:46.109Z,30.70
2019-02-25T13:14:22.420Z,28.52
2019-02-25T13:16:56.706Z,29.77
2019-02-25T13:19:36.017Z,29.60
2019-02-25T13:22:10.225Z,30.27
2019-02-25T13:24:44.527Z,31.75
2019-02-25T13:27:23.797Z,29.37
2019-02-25T13:29:58.060Z,27.05
2019-02-25T13:32:34.595Z,35.38
2019-02-25T13:35:11.350Z,36.28
2019-02-25T13:37:47.939Z,28.02
2019-02-25T13:40:22.331Z,27.70
2019-02-25T13:42:57.269Z,25.75
2019-02-25T13:45:31.491Z,26.20
2019-02-25T13:48:05.788Z,31.85
2019-02-25T13:50:45.841Z,33.53
2019-02-25T13:53:20.095Z,37.75
2019-02-25T13:55:54.449Z,41.13
2019-02-25T13:58:34.736Z,42.88
2019-02-25T14:01:09.099Z,51.90
2019-02-25T14:03:43.320Z,51.73
2019-02-25T14:06:20.680Z,52.58
2019-02-25T14:08:54.892Z,51.85
2019-02-25T14:11:29.247Z,55.28
2019-02-25T14:14:03.533Z,54.08
2019-02-25T14:16:37.853Z,68.40
2019-02-25T14:19:12.057Z,71.25
2019-02-25T14:21:49.367Z,73.33
2019-02-25T14:24:24.671Z,75.12
2019-02-25T14:26:58.889Z,84.92
2019-02-25T14:29:33.181Z,79.07
2019-02-25T14:32:17.006Z,78.45
2019-02-25T14:34:51.357Z,82.12
2019-02-25T14:37:25.337Z,82.67
2019-02-25T14:40:02.794Z,79.93
2019-02-25T14:42:38.485Z,83.23
2019-02-25T14:45:14.721Z,84.50
2019-02-25T14:47:49.764Z,87.20
2019-02-25T14:50:31.597Z,83.47
2019-02-25T14:53:06.601Z,79.07
2019-02-25T14:55:42.893Z,81.87
2019-02-25T14:58:17.520Z,80.57
2019-02-25T15:00:51.877Z,76.30
2019-02-25T15:03:27.100Z,88.00
2019-02-25T15:06:01.427Z,88.13
2019-02-25T15:08:35.065Z,83.67
2019-02-25T15:11:10.850Z,81.23
2019-02-25T15:13:44.311Z,85.43
2019-02-25T15:16:17.962Z,91.90
2019-02-25T15:18:58.642Z,95.00
2019-02-25T15:21:33.397Z,87.83
2019-02-25T15:24:08.411Z,100.20
2019-02-25T15:26:43.378Z,103.30
2019-02-25T15:29:29.412Z,91.90
2019-02-25T15:32:03.583Z,91.67
2019-02-25T15:34:52.852Z,93.20
2019-02-25T15:37:27.892Z,95.07
2019-02-25T15:40:01.829Z,93.87
2019-02-25T15:42:38.455Z,93.80
2019-02-25T15:45:18.805Z,90.10
2019-02-25T15:47:59.816Z,93.30
2019-02-25T15:50:33.981Z,90.33
2019-02-25T15:53:09.458Z,89.03
2019-02-25T15:55:43.616Z,91.47
2019-02-25T15:58:17.643Z,92.17
2019-02-25T16:00:58.732Z,97.27
2019-02-25T16:03:34.449Z,87.00
2019-02-25T16:06:08.372Z,90.50
2019-02-25T16:08:49.847Z,87.57
2019-02-25T16:11:25.627Z,91.53
2019-02-25T16:14:00.671Z,92.57
2019-02-25T16:16:35.389Z,91.60
2019-02-25T16:19:13.552Z,96.83
2019-02-25T16:21:47.426Z,90.70
2019-02-25T16:24:21.162Z,102.20
2019-02-25T16:26:56.179Z,103.67
2019-02-25T16:29:30.426Z,94.37
2019-02-25T16:32:11.247Z,95.60
2019-02-25T16:34:44.944Z,99.90
2019-02-25T16:37:19.876Z,97.07
2019-02-25T16:39:55.547Z,88.90
2019-02-25T16:42:30.241Z,87.70
2019-02-25T16:45:14.179Z,84.90
2019-02-25T16:47:47.936Z,87.17
2019-02-25T16:50:25.355Z,86.63
2019-02-25T16:53:01.230Z,88.00
2019-02-25T16:55:34.354Z,82.63
2019-02-25T16:58:12.473Z,83.27
2019-02-25T17:00:44.052Z,89.30
2019-02-25T17:03:17.891Z,82.23
2019-02-25T17:05:54.779Z,82.40
2019-02-25T17:08:30.346Z,90.67
2019-02-25T17:11:03.711Z,82.53
2019-02-25T17:13:39.298Z,83.00
2019-02-25T17:16:29.172Z,83.63
2019-02-25T17:19:02.800Z,85.00
2019-02-25T17:21:42.920Z,86.13
2019-02-25T17:24:15.511Z,89.00
2019-02-25T17:26:51.652Z,85.67
2019-02-25T17:29:26.561Z,89.00
2019-02-25T17:32:07.243Z,87.10
2019-02-25T17:34:41.484Z,91.97
2019-02-25T17:37:17.144Z,88.10
2019-02-25T17:39:54.127Z,75.23
2019-02-25T17:42:26.444Z,80.93
2019-02-25T17:45:09.957Z,86.73
2019-02-25T17:47:44.167Z,85.13
2019-02-25T17:50:19.957Z,85.60
2019-02-25T17:52:53.923Z,79.83
2019-02-25T17:55:29.929Z,86.17
2019-02-25T17:58:06.861Z,83.87
2019-02-25T18:00:42.652Z,85.93
2019-02-25T18:03:19.535Z,78.87
2019-02-25T18:05:56.300Z,84.07
2019-02-25T18:08:30.215Z,94.43
2019-02-25T18:11:05.105Z,89.57
2019-02-25T18:13:44.529Z,87.90
2019-02-25T18:16:19.012Z,86.07
2019-02-25T18:18:54.346Z,91.23
2019-02-25T18:21:28.917Z,84.77
2019-02-25T18:24:05.082Z,85.27
2019-02-25T18:26:39.106Z,177.50
2019-02-25T18:29:16.016Z,111.33
2019-02-25T18:31:49.464Z,99.50
2019-02-25T18:34:27.889Z,89.60
2019-02-25T18:37:01.528Z,97.73
2019-02-25T18:39:35.345Z,91.93
2019-02-25T18:42:11.606Z,92.77
2019-02-25T18:44:46.835Z,107.37
2019-02-25T18:47:25.599Z,103.83
2019-02-25T18:50:01.178Z,97.70
2019-02-25T18:52:41.119Z,104.27
2019-02-25T18:55:20.418Z,93.90
2019-02-25T18:57:54.396Z,93.83
2019-02-25T19:00:31.986Z,94.63
2019-02-25T19:03:06.846Z,97.73
2019-02-25T19:05:41.106Z,108.30
2019-02-25T19:08:22.717Z,104.30
2019-02-25T19:10:57.263Z,109.20
2019-02-25T19:13:40.512Z,106.57
2019-02-25T19:16:15.771Z,108.20
2019-02-25T19:18:52.728Z,117.60
2019-02-25T19:21:27.735Z,103.53
2019-02-25T19:24:07.693Z,107.87
2019-02-25T19:26:43.016Z,115.13
2019-02-25T19:29:17.762Z,111.60
2019-02-25T19:31:52.786Z,117.60
2019-02-25T19:34:29.625Z,131.50
2019-02-25T19:37:05.158Z,122.10
2019-02-25T19:39:39.693Z,123.37
2019-02-25T19:42:24.290Z,133.13
2019-02-25T19:44:58.566Z,128.80
2019-02-25T19:47:33.825Z,141.53
2019-02-25T19:50:11.828Z,132.33
2019-02-25T19:52:46.682Z,132.27
2019-02-25T19:55:22.617Z,127.93
2019-02-25T19:57:55.864Z,136.50
2019-02-25T20:00:30.419Z,136.33
2019-02-25T20:03:12.036Z,131.90
2019-02-25T20:05:46.337Z,139.90
2019-02-25T20:08:24.849Z,125.47
2019-02-25T20:10:58.611Z,121.17
2019-02-25T20:13:38.141Z,116.50
2019-02-25T20:16:15.813Z,118.13
2019-02-25T20:18:47.159Z,130.97
2019-02-25T20:21:22.403Z,133.53
2019-02-25T20:23:56.118Z,137.73
2019-02-25T20:26:30.078Z,138.43
2019-02-25T20:29:04.596Z,132.50
2019-02-25T20:31:39.422Z,142.00
2019-02-25T20:34:16.526Z,136.47
2019-02-25T20:36:52.405Z,124.23
2019-02-25T20:39:28.659Z,124.70
2019-02-25T20:42:21.760Z,132.93
2019-02-25T20:44:55.277Z,137.93
2019-02-25T20:47:30.270Z,137.07
2019-02-25T20:50:09.239Z,147.07
2019-02-25T20:52:44.563Z,142.17
2019-02-25T20:55:20.236Z,157.23
2019-02-25T20:57:53.910Z,141.50
2019-02-25T21:00:28.166Z,122.77
2019-02-25T21:03:01.787Z,135.97
2019-02-25T21:05:43.496Z,139.77
2019-02-25T21:08:19.148Z,128.50
2019-02-25T21:10:55.784Z,127.27
2019-02-25T21:13:31.347Z,134.13
2019-02-25T21:16:08.176Z,132.47
2019-02-25T21:18:44.293Z,121.17
2019-02-25T21:21:17.691Z,125.17
2019-02-25T21:23:54.410Z,134.80
2019-02-25T21:26:29.411Z,110.43
2019-02-25T21:29:09.695Z,119.53
2019-02-25T21:31:45.733Z,116.40
2019-02-25T21:34:24.090Z,115.60
2019-02-25T21:36:56.716Z,112.00
2019-02-25T21:39:38.725Z,116.37
2019-02-25T21:42:15.371Z,113.17
2019-02-25T21:44:50.305Z,108.97
2019-02-25T21:47:24.309Z,107.53
2019-02-25T21:50:00.923Z,111.10
2019-02-25T21:52:35.236Z,108.73
2019-02-25T21:55:23.778Z,103.43
2019-02-25T21:57:58.003Z,102.23
2019-02-25T22:00:35.882Z,100.27
2019-02-25T22:03:10.905Z,102.13
2019-02-25T22:05:49.356Z,95.77
2019-02-25T22:08:24.154Z,98.73
2019-02-25T22:10:58.226Z,103.23
2019-02-25T22:13:31.914Z,96.77
2019-02-25T22:16:08.663Z,96.07
2019-02-25T22:18:42.301Z,101.60
2019-02-25T22:21:19.492Z,99.63
2019-02-25T22:23:56.080Z,105.43
2019-02-25T22:26:29.136Z,96.53
2019-02-25T22:29:08.165Z,86.27
2019-02-25T22:31:42.440Z,88.50
2019-02-25T22:34:17.973Z,80.57
2019-02-25T22:36:53.461Z,86.67
2019-02-25T22:39:31.891Z,91.67
2019-02-25T22:42:07.238Z,85.13
2019-02-25T22:44:45.151Z,86.07
2019-02-25T22:47:22.912Z,84.07
2019-02-25T22:49:56.061Z,73.63
2019-02-25T22:52:38.821Z,74.63
2019-02-25T22:55:15.390Z,75.13
2019-02-25T22:57:51.180Z,77.07
2019-02-25T23:00:30.387Z,72.93
2019-02-25T23:03:04.241Z,69.83
2019-02-25T23:05:41.012Z,66.33
2019-02-25T23:08:15.501Z,73.63
2019-02-25T23:10:54.134Z,65.27
2019-02-25T23:13:29.893Z,65.90
2019-02-25T23:16:06.533Z,63.83
2019-02-25T23:18:40.160Z,63.03
2019-02-25T23:21:23.152Z,65.17
2019-02-25T23:23:51.279Z,66.83
2019-02-25T23:26:26.263Z,63.23
2019-02-25T23:28:59.912Z,67.50
2019-02-25T23:31:33.486Z,67.20
2019-02-25T23:34:07.993Z,68.57
2019-02-25T23:36:44.824Z,68.40
2019-02-25T23:39:17.875Z,70.07
2019-02-25T23:42:04.997Z,70.00
2019-02-25T23:44:37.940Z,69.90
2019-02-25T23:47:11.756Z,64.30
2019-02-25T23:49:46.298Z,64.30
2019-02-25T23:52:28.079Z,67.03
2019-02-25T23:55:02.380Z,73.90
2019-02-25T23:57:35.998Z,70.13
